createdAt,value
2022-11-24T00:01:27.777Z,0.73
2022-11-24T00:03:59.266Z,0.85
2022-11-24T00:06:28.189Z,0.88
2022-11-24T00:08:55.629Z,0.85
2022-11-24T00:11:25.179Z,0.52
2022-11-24T00:13:52.753Z,0.93
2022-11-24T00:16:22.700Z,1.30
2022-11-24T00:18:51.810Z,0.65
2022-11-24T00:21:19.941Z,0.55
2022-11-24T00:23:48.329Z,0.60
2022-11-24T00:26:16.832Z,0.60
2022-11-24T00:28:45.806Z,0.65
2022-11-24T00:31:21.449Z,0.93
2022-11-24T00:33:50.564Z,0.75
2022-11-24T00:36:19.252Z,1.23
2022-11-24T00:38:46.812Z,0.85
2022-11-24T00:41:14.720Z,0.88
2022-11-24T00:43:41.948Z,1.27
2022-11-24T00:46:09.348Z,1.27
2022-11-24T00:48:36.713Z,1.35
2022-11-24T00:51:06.893Z,1.70
2022-11-24T00:53:34.830Z,0.88
2022-11-24T00:56:04.140Z,1.30
2022-11-24T00:58:32.408Z,0.90
2022-11-24T01:01:09.304Z,1.48
2022-11-24T01:03:36.709Z,1.35
2022-11-24T01:06:08.229Z,1.80
2022-11-24T01:08:37.876Z,1.20
2022-11-24T01:11:16.365Z,1.00
2022-11-24T01:13:45.792Z,0.82
2022-11-24T01:16:19.233Z,1.65
2022-11-24T01:18:47.643Z,1.45
2022-11-24T01:21:15.938Z,1.00
2022-11-24T01:23:43.797Z,0.60
2022-11-24T01:26:13.973Z,1.30
2022-11-24T01:28:46.618Z,0.98
2022-11-24T01:31:16.457Z,0.97
2022-11-24T01:33:43.845Z,0.88
2022-11-24T01:36:11.347Z,0.50
2022-11-24T01:38:38.564Z,0.43
2022-11-24T01:41:18.651Z,0.40
2022-11-24T01:43:47.082Z,0.50
2022-11-24T01:46:24.102Z,0.40
2022-11-24T01:49:09.516Z,0.32
2022-11-24T01:51:51.743Z,0.80
2022-11-24T01:54:22.594Z,1.38
2022-11-24T01:56:54.665Z,0.50
2022-11-24T01:59:22.521Z,0.60
2022-11-24T02:01:51.581Z,0.75
2022-11-24T02:04:24.133Z,0.40
2022-11-24T02:06:52.945Z,0.80
2022-11-24T02:09:25.253Z,0.68
2022-11-24T02:11:54.806Z,0.70
2022-11-24T02:14:23.899Z,0.70
2022-11-24T02:16:53.115Z,0.90
2022-11-24T02:19:36.651Z,0.50
2022-11-24T02:22:04.573Z,0.45
2022-11-24T02:24:47.407Z,0.40
2022-11-24T02:27:14.741Z,1.88
2022-11-24T02:29:42.780Z,0.55
2022-11-24T02:32:11.432Z,0.50
2022-11-24T02:34:38.740Z,0.77
2022-11-24T02:37:06.062Z,0.60
2022-11-24T02:39:33.561Z,0.70
2022-11-24T02:42:08.271Z,0.80
2022-11-24T02:44:44.139Z,0.73
2022-11-24T02:47:13.201Z,0.80
2022-11-24T02:49:41.232Z,2.35
2022-11-24T02:52:09.081Z,1.33
2022-11-24T02:54:36.704Z,0.43
2022-11-24T02:57:04.351Z,0.63
2022-11-24T02:59:31.689Z,1.02
2022-11-24T03:01:59.151Z,0.60
2022-11-24T03:04:26.526Z,0.70
2022-11-24T03:06:54.041Z,0.60
2022-11-24T03:09:21.329Z,1.33
2022-11-24T03:11:48.573Z,0.80
2022-11-24T03:14:15.887Z,1.13
2022-11-24T03:16:43.110Z,1.65
2022-11-24T03:19:10.385Z,0.95
2022-11-24T03:21:37.609Z,1.25
2022-11-24T03:24:05.213Z,1.15
2022-11-24T03:26:35.760Z,0.90
2022-11-24T03:29:03.134Z,0.90
2022-11-24T03:31:30.470Z,1.48
2022-11-24T03:33:57.732Z,0.73
2022-11-24T03:36:25.453Z,1.08
2022-11-24T03:38:52.935Z,1.00
2022-11-24T03:41:20.495Z,0.93
2022-11-24T03:43:47.839Z,1.65
2022-11-24T03:46:15.151Z,1.27
2022-11-24T03:48:42.642Z,1.02
2022-11-24T03:51:10.009Z,1.10
2022-11-24T03:53:37.363Z,2.50
2022-11-24T03:56:04.700Z,1.80
2022-11-24T03:58:32.036Z,2.05
2022-11-24T04:00:59.708Z,1.38
2022-11-24T04:03:27.238Z,1.05
2022-11-24T04:05:54.496Z,2.67
2022-11-24T04:08:21.756Z,2.30
2022-11-24T04:10:53.660Z,1.60
2022-11-24T04:13:25.538Z,2.47
2022-11-24T04:15:52.911Z,0.90
2022-11-24T04:18:20.812Z,1.27
2022-11-24T04:20:50.985Z,1.70
2022-11-24T04:23:18.657Z,1.77
2022-11-24T04:25:45.891Z,1.30
2022-11-24T04:28:13.208Z,1.83
2022-11-24T04:30:44.839Z,1.00
2022-11-24T04:33:12.527Z,1.08
2022-11-24T04:35:39.833Z,1.98
2022-11-24T04:38:07.218Z,1.35
2022-11-24T04:40:34.500Z,1.52
2022-11-24T04:43:01.710Z,1.00
2022-11-24T04:45:28.984Z,0.93
2022-11-24T04:47:56.221Z,1.77
2022-11-24T04:50:23.491Z,1.85
2022-11-24T04:52:50.742Z,1.73
2022-11-24T04:55:18.370Z,1.80
2022-11-24T04:57:45.656Z,1.95
2022-11-24T05:00:13.607Z,2.20
2022-11-24T05:02:40.861Z,1.88
2022-11-24T05:05:08.551Z,1.38
2022-11-24T05:07:35.930Z,0.90
2022-11-24T05:10:21.969Z,1.42
2022-11-24T05:12:59.599Z,0.80
2022-11-24T05:15:27.623Z,0.80
2022-11-24T05:17:56.005Z,0.70
2022-11-24T05:20:23.986Z,0.60
2022-11-24T05:22:51.674Z,0.80
2022-11-24T05:25:18.942Z,1.00
2022-11-24T05:27:46.140Z,1.15
2022-11-24T05:30:13.821Z,1.60
2022-11-24T05:32:41.024Z,1.00
2022-11-24T05:35:09.880Z,1.20
2022-11-24T05:37:37.973Z,0.93
2022-11-24T05:40:07.046Z,2.05
2022-11-24T05:42:47.156Z,1.23
2022-11-24T05:45:18.583Z,1.45
2022-11-24T05:47:46.869Z,1.40
2022-11-24T05:50:15.952Z,0.90
2022-11-24T05:52:43.295Z,1.70
2022-11-24T05:55:11.630Z,1.13
2022-11-24T05:57:38.901Z,1.52
2022-11-24T06:00:07.715Z,1.65
2022-11-24T06:02:43.852Z,1.52
2022-11-24T06:05:11.121Z,2.58
2022-11-24T06:07:38.448Z,0.85
2022-11-24T06:10:05.999Z,0.70
2022-11-24T06:12:33.228Z,0.70
2022-11-24T06:15:00.436Z,1.85
2022-11-24T06:17:27.777Z,1.58
2022-11-24T06:19:55.020Z,1.55
2022-11-24T06:22:22.310Z,1.30
2022-11-24T06:24:50.813Z,1.50
2022-11-24T06:27:18.132Z,1.10
2022-11-24T06:29:45.687Z,1.17
2022-11-24T06:32:12.900Z,1.00
2022-11-24T06:34:40.345Z,1.77
2022-11-24T06:37:07.603Z,1.58
2022-11-24T06:39:34.999Z,1.00
2022-11-24T06:42:02.478Z,1.00
2022-11-24T06:44:29.959Z,1.33
2022-11-24T06:46:57.189Z,1.33
2022-11-24T06:49:24.448Z,1.20
2022-11-24T06:51:51.668Z,1.33
2022-11-24T06:54:21.542Z,1.38
2022-11-24T06:56:48.779Z,1.17
2022-11-24T06:59:20.663Z,0.95
2022-11-24T07:01:48.242Z,1.30
2022-11-24T07:04:16.145Z,1.17
2022-11-24T07:06:44.196Z,1.55
2022-11-24T07:09:13.642Z,0.98
2022-11-24T07:11:41.618Z,0.75
2022-11-24T07:14:09.529Z,0.73
2022-11-24T07:16:37.625Z,1.20
2022-11-24T07:19:05.031Z,0.90
2022-11-24T07:21:32.418Z,0.70
2022-11-24T07:23:59.717Z,0.85
2022-11-24T07:26:26.973Z,1.85
2022-11-24T07:28:54.289Z,1.00
2022-11-24T07:31:25.126Z,1.10
2022-11-24T07:33:54.277Z,0.77
2022-11-24T07:36:22.508Z,1.55
2022-11-24T07:38:50.014Z,0.70
2022-11-24T07:41:19.690Z,1.85
2022-11-24T07:43:47.650Z,0.80
2022-11-24T07:46:17.019Z,0.90
2022-11-24T07:48:44.643Z,0.95
2022-11-24T07:51:12.213Z,1.38
2022-11-24T07:53:40.091Z,1.02
2022-11-24T07:56:07.735Z,1.05
2022-11-24T07:58:36.683Z,0.85
2022-11-24T08:01:15.215Z,0.85
2022-11-24T08:03:43.552Z,0.80
2022-11-24T08:06:31.913Z,0.90
2022-11-24T08:08:59.951Z,0.60
2022-11-24T08:11:28.177Z,1.00
2022-11-24T08:13:55.508Z,1.13
2022-11-24T08:16:23.083Z,0.80
2022-11-24T08:18:52.251Z,1.00
2022-11-24T08:21:20.217Z,1.48
2022-11-24T08:23:47.479Z,1.23
2022-11-24T08:26:18.104Z,1.70
2022-11-24T08:28:46.920Z,1.10
2022-11-24T08:31:16.871Z,1.33
2022-11-24T08:33:44.074Z,1.20
2022-11-24T08:36:14.141Z,1.52
2022-11-24T08:38:42.031Z,1.23
2022-11-24T08:41:12.886Z,1.33
2022-11-24T08:43:40.356Z,1.58
2022-11-24T08:46:10.026Z,1.50
2022-11-24T08:48:37.800Z,1.38
2022-11-24T08:51:10.506Z,1.42
2022-11-24T08:53:38.342Z,1.80
2022-11-24T08:56:06.436Z,1.58
2022-11-24T08:58:33.780Z,1.70
2022-11-24T09:01:14.561Z,2.70
2022-11-24T09:03:48.538Z,1.77
2022-11-24T09:06:23.688Z,2.80
2022-11-24T09:08:52.181Z,1.63
2022-11-24T09:11:19.572Z,1.88
2022-11-24T09:13:46.776Z,1.98
2022-11-24T09:16:19.287Z,1.75
2022-11-24T09:18:47.381Z,2.10
2022-11-24T09:21:16.014Z,1.80
2022-11-24T09:23:44.083Z,1.58
2022-11-24T09:26:16.484Z,1.60
2022-11-24T09:28:43.954Z,2.25
2022-11-24T09:31:14.163Z,1.75
2022-11-24T09:33:42.144Z,1.27
2022-11-24T09:36:09.781Z,1.75
2022-11-24T09:38:37.206Z,1.80
2022-11-24T09:41:15.584Z,2.50
2022-11-24T09:44:10.326Z,2.50
2022-11-24T09:47:01.698Z,3.00
2022-11-24T09:49:51.035Z,2.70
2022-11-24T09:52:33.215Z,2.05
2022-11-24T09:55:04.990Z,2.28
2022-11-24T09:57:37.788Z,2.65
2022-11-24T10:00:13.540Z,1.80
2022-11-24T10:02:40.806Z,3.22
2022-11-24T10:05:08.505Z,2.97
2022-11-24T10:07:52.111Z,2.97
2022-11-24T10:10:29.885Z,1.75
2022-11-24T10:13:26.748Z,2.03
2022-11-24T10:16:15.700Z,3.03
2022-11-24T10:18:50.808Z,3.95
2022-11-24T10:21:36.446Z,3.33
2022-11-24T10:24:20.557Z,3.78
2022-11-24T10:26:59.690Z,2.77
2022-11-24T10:29:32.707Z,3.90
2022-11-24T10:32:04.199Z,4.55
2022-11-24T10:34:38.066Z,4.75
2022-11-24T10:37:17.055Z,4.65
2022-11-24T10:40:03.503Z,3.10
2022-11-24T10:42:33.640Z,3.60
2022-11-24T10:45:04.191Z,4.72
2022-11-24T10:47:31.521Z,5.30
2022-11-24T10:50:11.304Z,3.58
2022-11-24T10:52:45.094Z,3.42
2022-11-24T10:55:12.333Z,3.80
2022-11-24T10:57:41.371Z,4.82
2022-11-24T11:00:20.901Z,5.13
2022-11-24T11:02:50.069Z,4.55
2022-11-24T11:05:32.647Z,3.70
2022-11-24T11:08:32.076Z,2.97
2022-11-24T11:11:18.395Z,3.83
2022-11-24T11:14:01.655Z,4.28
2022-11-24T11:16:34.124Z,2.70
2022-11-24T11:19:15.653Z,4.95
2022-11-24T11:22:16.114Z,4.57
2022-11-24T11:24:45.322Z,4.28
2022-11-24T11:27:21.443Z,3.50
2022-11-24T11:35:40.792Z,3.75
2022-11-24T11:38:07.999Z,4.65
2022-11-24T11:40:35.484Z,3.35
2022-11-24T11:43:24.558Z,4.35
2022-11-24T11:46:04.025Z,3.95
2022-11-24T11:48:42.787Z,3.55
2022-11-24T11:51:26.294Z,3.45
2022-11-24T11:54:09.692Z,3.15
2022-11-24T11:56:45.239Z,3.05
2022-11-24T11:59:45.929Z,2.45
2022-11-24T12:02:29.656Z,2.90
2022-11-24T12:05:15.876Z,3.63
2022-11-24T12:07:55.992Z,3.95
2022-11-24T12:10:53.222Z,2.50
2022-11-24T12:13:58.684Z,2.97
2022-11-24T12:16:31.138Z,3.03
2022-11-24T12:19:24.216Z,3.47
2022-11-24T12:22:06.634Z,2.25
2022-11-24T12:24:58.197Z,1.92
2022-11-24T12:27:47.465Z,4.03
2022-11-24T12:30:17.957Z,3.15
2022-11-24T12:32:58.055Z,2.97
2022-11-24T12:35:41.363Z,2.88
2022-11-24T12:38:42.648Z,2.72
2022-11-24T12:44:29.875Z,4.10
2022-11-24T12:47:19.447Z,2.92
2022-11-24T12:49:59.189Z,2.90
2022-11-24T12:52:31.329Z,2.80
2022-11-24T12:54:59.437Z,3.00
2022-11-24T12:57:34.800Z,3.10
2022-11-24T13:00:43.447Z,3.65
2022-11-24T13:03:18.005Z,2.85
2022-11-24T13:08:29.632Z,2.95
2022-11-24T13:11:22.678Z,2.72
2022-11-24T13:14:07.629Z,3.15
2022-11-24T13:19:14.055Z,2.88
2022-11-24T13:21:41.603Z,2.83
2022-11-24T13:24:21.953Z,2.67
2022-11-24T13:26:52.057Z,3.53
2022-11-24T13:29:28.970Z,2.58
2022-11-24T13:32:19.227Z,2.67
2022-11-24T13:34:55.434Z,4.43
2022-11-24T13:37:28.899Z,2.53
2022-11-24T13:40:23.359Z,3.22
2022-11-24T13:43:01.629Z,2.90
2022-11-24T13:45:45.323Z,3.63
2022-11-24T13:48:22.550Z,2.88
2022-11-24T13:50:50.377Z,3.22
2022-11-24T13:53:17.680Z,3.95
2022-11-24T13:55:55.078Z,2.65
2022-11-24T13:58:34.209Z,2.97
2022-11-24T14:01:12.198Z,3.20
2022-11-24T14:04:07.217Z,2.90
2022-11-24T14:06:34.694Z,3.30
2022-11-24T14:09:17.252Z,2.00
2022-11-24T14:11:46.976Z,2.28
2022-11-24T14:14:20.884Z,2.60
2022-11-24T14:16:48.250Z,3.00
2022-11-24T14:19:19.528Z,3.53
2022-11-24T14:21:46.746Z,2.10
2022-11-24T14:24:35.427Z,3.38
2022-11-24T14:27:05.468Z,2.92
2022-11-24T14:29:33.352Z,2.08
2022-11-24T14:32:03.629Z,2.30
2022-11-24T14:34:35.669Z,2.30
2022-11-24T14:37:03.355Z,3.85
2022-11-24T14:39:31.242Z,3.28
2022-11-24T14:42:16.496Z,2.58
2022-11-24T14:44:59.333Z,3.22
2022-11-24T14:47:32.832Z,2.78
2022-11-24T14:50:15.469Z,4.35
2022-11-24T14:52:55.529Z,3.13
2022-11-24T14:55:35.403Z,3.45
2022-11-24T14:58:02.625Z,2.10
2022-11-24T15:00:32.303Z,3.30
2022-11-24T15:03:02.235Z,2.53
2022-11-24T15:05:53.276Z,3.20
2022-11-24T15:08:21.228Z,2.88
2022-11-24T15:10:48.934Z,2.53
2022-11-24T15:13:20.738Z,2.60
2022-11-24T15:15:56.345Z,1.63
2022-11-24T15:18:37.575Z,2.65
2022-11-24T15:21:05.329Z,3.47
2022-11-24T15:23:35.143Z,1.83
2022-11-24T15:26:02.316Z,2.47
2022-11-24T15:28:32.571Z,2.95
2022-11-24T15:31:01.877Z,2.10
2022-11-24T15:33:29.944Z,2.67
2022-11-24T15:35:57.337Z,2.80
2022-11-24T15:38:24.500Z,1.73
2022-11-24T15:40:53.666Z,2.17
2022-11-24T15:43:40.792Z,3.28
2022-11-24T15:46:09.000Z,3.17
2022-11-24T15:48:36.582Z,3.55
2022-11-24T15:51:11.398Z,2.25
2022-11-24T15:53:43.070Z,2.50
2022-11-24T15:56:23.072Z,2.17
2022-11-24T15:58:50.345Z,3.15
2022-11-24T16:01:17.704Z,2.60
2022-11-24T16:03:47.905Z,3.08
2022-11-24T16:06:24.136Z,2.13
2022-11-24T16:08:55.257Z,2.95
2022-11-24T16:11:23.492Z,2.22
2022-11-24T16:13:53.495Z,1.85
2022-11-24T16:16:22.928Z,2.05
2022-11-24T16:18:50.695Z,1.55
2022-11-24T16:21:18.400Z,1.35
2022-11-24T16:23:46.783Z,1.40
2022-11-24T16:26:14.047Z,1.40
2022-11-24T16:28:42.111Z,0.88
2022-11-24T16:31:09.439Z,1.40
2022-11-24T16:33:40.658Z,0.70
2022-11-24T16:36:08.868Z,0.70
2022-11-24T16:38:36.141Z,0.85
2022-11-24T16:41:03.357Z,0.50
2022-11-24T16:43:30.701Z,0.60
2022-11-24T16:46:21.104Z,0.50
2022-11-24T16:48:50.945Z,0.40
2022-11-24T16:51:20.411Z,0.57
2022-11-24T16:53:48.650Z,0.88
2022-11-24T16:56:16.578Z,0.60
2022-11-24T16:58:43.939Z,0.50
2022-11-24T17:01:13.195Z,0.60
2022-11-24T17:03:41.099Z,0.70
2022-11-24T17:06:11.447Z,0.52
2022-11-24T17:08:40.213Z,0.38
2022-11-24T17:11:11.288Z,0.50
2022-11-24T17:13:39.216Z,0.60
2022-11-24T17:16:08.461Z,0.45
2022-11-24T17:18:36.210Z,1.00
2022-11-24T17:21:09.249Z,0.73
2022-11-24T17:23:37.218Z,0.73
2022-11-24T17:26:07.117Z,0.70
2022-11-24T17:28:35.090Z,0.55
2022-11-24T17:31:21.113Z,0.82
2022-11-24T17:33:49.782Z,0.68
2022-11-24T17:36:17.154Z,0.70
2022-11-24T17:38:44.450Z,1.52
2022-11-24T17:41:11.865Z,0.70
2022-11-24T17:43:39.752Z,0.63
2022-11-24T17:46:07.833Z,0.75
2022-11-24T17:48:36.020Z,0.60
2022-11-24T17:51:14.671Z,0.68
2022-11-24T17:53:43.856Z,0.60
2022-11-24T17:56:16.161Z,0.90
2022-11-24T17:58:43.704Z,1.15
2022-11-24T18:01:12.372Z,0.70
2022-11-24T18:03:40.644Z,0.80
2022-11-24T18:06:10.579Z,1.20
2022-11-24T18:08:39.579Z,1.55
2022-11-24T18:11:12.933Z,1.10
2022-11-24T18:13:58.517Z,2.13
2022-11-24T18:16:30.370Z,1.73
2022-11-24T18:19:08.422Z,1.20
2022-11-24T18:21:38.215Z,1.27
2022-11-24T18:24:06.109Z,1.30
2022-11-24T18:26:33.342Z,1.38
2022-11-24T18:29:00.551Z,1.10
2022-11-24T18:31:29.427Z,1.48
2022-11-24T18:33:56.889Z,2.00
2022-11-24T18:36:29.966Z,2.30
2022-11-24T18:39:01.758Z,1.60
2022-11-24T18:41:28.969Z,1.98
2022-11-24T18:43:56.242Z,2.95
2022-11-24T18:46:23.541Z,3.97
2022-11-24T18:48:53.209Z,4.07
2022-11-24T18:51:22.743Z,18.42
2022-11-24T18:53:54.510Z,12.70
2022-11-24T18:56:21.876Z,7.70
2022-11-24T18:58:53.837Z,5.45
2022-11-24T19:01:24.191Z,3.35
2022-11-24T19:03:53.929Z,2.78
2022-11-24T19:06:39.495Z,3.60
2022-11-24T19:09:12.026Z,2.97
2022-11-24T19:11:42.245Z,3.58
2022-11-24T19:14:12.876Z,3.03
2022-11-24T19:16:41.020Z,3.00
2022-11-24T19:19:08.802Z,6.28
2022-11-24T19:21:38.508Z,3.80
2022-11-24T19:24:10.317Z,3.10
2022-11-24T19:26:38.542Z,2.53
2022-11-24T19:29:07.039Z,2.72
2022-11-24T19:31:35.457Z,2.55
2022-11-24T19:34:03.672Z,2.65
2022-11-24T19:36:31.144Z,3.88
2022-11-24T19:38:59.035Z,1.83
2022-11-24T19:41:28.751Z,3.20
2022-11-24T19:43:57.999Z,2.83
2022-11-24T19:46:27.659Z,2.60
2022-11-24T19:48:59.306Z,2.75
2022-11-24T19:51:30.825Z,3.25
2022-11-24T19:53:58.469Z,3.30
2022-11-24T19:56:28.278Z,2.33
2022-11-24T19:58:56.472Z,3.20
2022-11-24T20:01:26.566Z,2.78
2022-11-24T20:04:02.845Z,4.05
2022-11-24T20:06:32.632Z,3.25
2022-11-24T20:09:00.632Z,3.65
2022-11-24T20:11:28.553Z,2.90
2022-11-24T20:13:56.151Z,4.93
2022-11-24T20:16:29.788Z,2.95
2022-11-24T20:19:09.838Z,2.75
2022-11-24T20:21:38.459Z,5.45
2022-11-24T20:24:10.240Z,5.68
2022-11-24T20:26:41.309Z,5.95
2022-11-24T20:29:12.191Z,4.78
2022-11-24T20:31:42.831Z,3.65
2022-11-24T20:34:11.361Z,4.03
2022-11-24T20:36:40.924Z,3.08
2022-11-24T20:39:12.289Z,4.25
2022-11-24T20:41:40.277Z,3.58
2022-11-24T20:44:10.719Z,3.95
2022-11-24T20:46:40.546Z,2.67
2022-11-24T20:49:10.998Z,3.35
2022-11-24T20:51:39.887Z,3.67
2022-11-24T20:54:08.599Z,5.03
2022-11-24T20:56:38.262Z,3.25
2022-11-24T20:59:05.904Z,3.28
2022-11-24T21:01:38.364Z,2.75
2022-11-24T21:04:11.788Z,3.58
2022-11-24T21:06:39.627Z,3.03
2022-11-24T21:09:08.408Z,2.42
2022-11-24T21:11:37.151Z,3.08
2022-11-24T21:14:04.869Z,3.65
2022-11-24T21:16:37.742Z,4.70
2022-11-24T21:19:11.740Z,3.70
2022-11-24T21:21:40.215Z,2.80
2022-11-24T21:24:13.838Z,3.80
2022-11-24T21:26:42.186Z,4.10
2022-11-24T21:29:12.203Z,2.35
2022-11-24T21:31:39.805Z,1.98
2022-11-24T21:34:08.082Z,3.15
2022-11-24T21:36:35.957Z,3.05
2022-11-24T21:39:04.331Z,3.42
2022-11-24T21:41:33.570Z,2.75
2022-11-24T21:44:01.268Z,3.15
2022-11-24T21:46:30.130Z,4.10
2022-11-24T21:48:57.335Z,2.92
2022-11-24T21:51:24.539Z,3.05
2022-11-24T21:53:51.743Z,3.08
2022-11-24T21:56:20.915Z,1.60
2022-11-24T21:58:54.077Z,2.13
2022-11-24T22:01:24.426Z,1.88
2022-11-24T22:03:52.003Z,2.15
2022-11-24T22:06:20.427Z,2.78
2022-11-24T22:08:48.549Z,1.40
2022-11-24T22:11:21.633Z,2.42
2022-11-24T22:13:49.728Z,1.52
2022-11-24T22:16:22.738Z,1.20
2022-11-24T22:18:50.798Z,1.30
2022-11-24T22:21:22.441Z,1.75
2022-11-24T22:23:52.661Z,1.63
2022-11-24T22:26:22.173Z,1.13
2022-11-24T22:28:50.227Z,1.20
2022-11-24T22:31:19.865Z,1.98
2022-11-24T22:33:48.001Z,1.30
2022-11-24T22:36:17.116Z,1.00
2022-11-24T22:38:44.430Z,1.15
2022-11-24T22:41:17.345Z,1.33
2022-11-24T22:43:46.159Z,1.83
2022-11-24T22:46:20.929Z,1.67
2022-11-24T22:48:49.763Z,1.65
2022-11-24T22:51:25.444Z,1.73
2022-11-24T22:53:58.122Z,2.20
2022-11-24T22:56:27.953Z,1.48
2022-11-24T22:58:55.351Z,1.35
2022-11-24T23:01:25.130Z,1.55
2022-11-24T23:03:55.974Z,1.70
2022-11-24T23:06:29.355Z,1.60
2022-11-24T23:08:58.000Z,1.55
2022-11-24T23:11:33.833Z,1.77
2022-11-24T23:14:04.378Z,1.42
2022-11-24T23:16:31.716Z,1.45
2022-11-24T23:18:58.943Z,1.35
2022-11-24T23:21:28.582Z,1.30
2022-11-24T23:23:56.111Z,1.98
2022-11-24T23:26:25.612Z,2.15
2022-11-24T23:28:52.942Z,2.00
2022-11-24T23:31:24.339Z,1.40
2022-11-24T23:33:51.641Z,1.00
2022-11-24T23:36:20.361Z,1.98
2022-11-24T23:38:48.577Z,2.08
2022-11-24T23:41:21.291Z,2.00
2022-11-24T23:43:48.599Z,2.40
2022-11-24T23:46:21.475Z,1.65
2022-11-24T23:48:50.207Z,1.08
2022-11-24T23:51:31.091Z,1.70
2022-11-24T23:53:59.451Z,1.42
2022-11-24T23:56:34.593Z,1.75
2022-11-24T23:59:03.859Z,2.17
